Time;durP1;ratioP1;P1;durP2;ratioP2;P2;SDS_P1;SDS_P2;PMS_P1;PMS_P2;Temp;Humidity;BMP_temperature;BMP_pressure;BME280_temperature;BME280_humidity;BME280_pressure;Samples;Min_cycle;Max_cycle;Signal;HPM_P1;HPM_P2
2022/01/29 00:00:00;;;;;;;;;;;;;;;5.82;47.92;100856.00;4379451;32;19987;-74
2022/01/29 00:02:27;;;;;;;;;;;;;;;5.86;47.31;100860.47;4368615;32;20331;-75
2022/01/29 00:04:54;;;;;;;;;;;;;;;5.76;47.62;100883.94;4386416;32;19998;-74
2022/01/29 00:07:21;;;;;;;;;;;;;;;5.97;46.95;100877.37;4371619;32;19986;-74
2022/01/29 00:09:48;;;;;;;;;;;;;;;5.68;47.71;100875.84;4361160;32;19991;-74
2022/01/29 00:12:15;;;;;;;;;;;;;;;5.51;47.85;100872.38;4374966;32;19974;-74
2022/01/29 00:14:43;;;;;;;;;;;;;;;5.78;47.22;100878.09;4371290;32;19982;-75
2022/01/29 00:17:12;;;;;;;;;;;;;;;6.17;46.13;100877.50;4368719;32;19995;-74
2022/01/29 00:19:41;;;;;;;;;;;;;;;6.05;46.36;100893.19;4367816;32;20001;-74
2022/01/29 00:22:08;;;;;;;;;;;;;;;5.99;46.26;100895.44;4376485;32;19986;-74
2022/01/29 00:24:35;;;;;;;;;;;;;;;5.74;46.99;100890.69;4367629;32;20323;-74
2022/01/29 00:27:08;;;;;;;;;;;;;;;5.27;48.60;100896.75;4369562;32;19982;-73
2022/01/29 00:29:38;;;;;;;;;;;;;;;5.89;47.34;100895.75;4369526;32;19975;-74
2022/01/29 00:32:06;;;;;;;;;;;;;;;5.81;47.37;100887.66;4380263;32;19979;-73
2022/01/29 00:34:33;;;;;;;;;;;;;;;6.35;46.50;100891.28;4376107;32;20268;-74
2022/01/29 00:37:01;;;;;;;;;;;;;;;6.32;46.51;100887.66;4390286;32;20040;-74
2022/01/29 00:39:28;;;;;;;;;;;;;;;6.14;46.96;100898.78;4368796;32;20664;-74
2022/01/29 00:41:57;;;;;;;;;;;;;;;5.65;48.47;100890.19;4386841;32;20383;-74
2022/01/29 00:44:41;;;;;;;;;;;;;;;6.09;47.66;100899.34;4378160;32;20440;-74
2022/01/29 00:47:08;;;;;;;;;;;;;;;5.99;48.07;100898.88;4369172;32;19987;-75
2022/01/29 00:49:34;;;;;;;;;;;;;;;5.85;48.67;100904.97;4376311;32;19997;-74
2022/01/29 00:52:01;;;;;;;;;;;;;;;6.05;48.66;100894.06;4371123;32;19983;-74
2022/01/29 00:54:28;;;;;;;;;;;;;;;6.03;49.07;100898.25;4369151;32;19982;-74
2022/01/29 00:56:55;;;;;;;;;;;;;;;5.79;49.84;100909.78;4369023;32;19999;-74
2022/01/29 00:59:24;;;;;;;;;;;;;;;5.73;50.28;100914.59;4380470;32;19986;-74
2022/01/29 01:01:51;;;;;;;;;;;;;;;5.40;51.36;100916.28;4369155;32;19975;-74
2022/01/29 01:04:17;;;;;;;;;;;;;;;5.38;51.69;100918.75;4369304;32;20029;-74
2022/01/29 01:06:44;;;;;;;;;;;;;;;5.52;51.41;100914.34;4370892;32;19979;-73
2022/01/29 01:09:12;;;;;;;;;;;;;;;5.05;52.65;100913.53;4385321;32;19987;-74
2022/01/29 01:11:39;;;;;;;;;;;;;;;4.41;54.11;100922.72;4377193;32;19989;-73
2022/01/29 01:14:06;;;;;;;;;;;;;;;5.43;51.49;100919.88;4379821;32;19991;-74
2022/01/29 01:16:33;;;;;;;;;;;;;;;4.98;53.02;100919.13;4369160;32;19982;-74
2022/01/29 01:19:00;;;;;;;;;;;;;;;5.58;51.16;100936.13;4371288;32;20906;-74
2022/01/29 01:21:27;;;;;;;;;;;;;;;5.58;51.21;100935.22;4375405;32;19982;-73
2022/01/29 01:23:54;;;;;;;;;;;;;;;5.42;51.69;100923.22;4368910;32;20686;-76
2022/01/29 01:26:20;;;;;;;;;;;;;;;5.31;52.27;100939.75;4373515;32;19983;-74
2022/01/29 01:28:47;;;;;;;;;;;;;;;5.38;51.82;100939.28;4372834;32;19979;-74
2022/01/29 01:31:15;;;;;;;;;;;;;;;5.82;50.80;100933.97;4368934;32;20025;-74
2022/01/29 01:33:44;;;;;;;;;;;;;;;5.54;51.21;100938.44;4374741;32;19978;-74
2022/01/29 01:36:13;;;;;;;;;;;;;;;5.60;51.21;100939.63;4353505;32;20029;-74
2022/01/29 01:41:11;;;;;;;;;;;;;;;5.77;50.86;100931.94;4368896;32;20022;-74
2022/01/29 01:43:38;;;;;;;;;;;;;;;5.09;52.70;100933.44;4383046;32;20006;-74
2022/01/29 01:46:05;;;;;;;;;;;;;;;4.62;53.87;100939.31;4389476;32;19998;-75
2022/01/29 01:48:32;;;;;;;;;;;;;;;5.43;51.60;100935.28;4394720;32;19991;-74
2022/01/29 01:50:59;;;;;;;;;;;;;;;5.31;51.84;100934.63;4393156;32;19999;-74
2022/01/29 01:53:26;;;;;;;;;;;;;;;5.12;52.32;100917.31;4379036;32;19990;-76
2022/01/29 01:55:53;;;;;;;;;;;;;;;4.71;53.34;100920.12;4379984;32;20447;-75
2022/01/29 01:58:20;;;;;;;;;;;;;;;4.96;52.19;100922.41;4368712;32;19995;-74
2022/01/29 02:00:46;;;;;;;;;;;;;;;5.17;51.33;100921.03;4369532;32;19986;-73
2022/01/29 02:03:13;;;;;;;;;;;;;;;5.27;50.85;100927.56;4375866;32;19989;-74
2022/01/29 02:05:41;;;;;;;;;;;;;;;5.12;50.90;100918.19;4370415;32;19986;-74
2022/01/29 02:08:08;;;;;;;;;;;;;;;5.00;51.00;100912.38;4374662;32;19993;-74
2022/01/29 02:10:35;;;;;;;;;;;;;;;4.94;51.38;100909.47;4368390;32;20430;-74
2022/01/29 02:13:04;;;;;;;;;;;;;;;5.12;50.37;100918.19;4377966;32;20007;-74
2022/01/29 02:15:32;;;;;;;;;;;;;;;5.12;49.78;100923.34;4372214;32;19974;-74
2022/01/29 02:18:01;;;;;;;;;;;;;;;5.19;49.73;100923.66;4377079;32;20068;-74
2022/01/29 02:20:30;;;;;;;;;;;;;;;5.22;49.73;100923.84;4381456;32;20328;-74
2022/01/29 02:22:57;;;;;;;;;;;;;;;4.82;50.78;100924.22;4386791;32;19982;-75
2022/01/29 02:25:34;;;;;;;;;;;;;;;4.77;50.67;100928.19;4384489;32;20301;-74
2022/01/29 02:28:03;;;;;;;;;;;;;;;5.04;49.84;100934.88;4381697;32;19998;-73
2022/01/29 02:30:31;;;;;;;;;;;;;;;4.71;49.99;100923.59;4381786;32;20082;-74
2022/01/29 02:32:59;;;;;;;;;;;;;;;5.18;48.58;100919.34;4382609;32;19983;-74
2022/01/29 02:35:27;;;;;;;;;;;;;;;5.08;48.54;100926.53;4378715;32;19989;-73
2022/01/29 02:37:55;;;;;;;;;;;;;;;5.07;48.65;100919.66;4371785;32;20328;-74
2022/01/29 02:40:22;;;;;;;;;;;;;;;5.12;48.90;100918.19;4396445;32;20336;-74
2022/01/29 02:42:54;;;;;;;;;;;;;;;5.36;48.17;100928.94;4394691;32;20752;-74
2022/01/29 02:45:21;;;;;;;;;;;;;;;5.55;47.32;100933.38;4383026;32;19982;-73
2022/01/29 02:47:47;;;;;;;;;;;;;;;5.67;47.24;100939.97;4378729;32;19975;-73
2022/01/29 02:50:14;;;;;;;;;;;;;;;5.42;47.80;100936.06;4385168;32;19981;-74
2022/01/29 02:52:41;;;;;;;;;;;;;;;5.60;47.66;100937.06;4391901;32;19979;-75
2022/01/29 02:55:08;;;;;;;;;;;;;;;5.20;48.85;100938.25;4377011;32;19978;-74
2022/01/29 02:57:36;;;;;;;;;;;;;;;5.57;47.76;100944.59;4380930;32;19983;-74
2022/01/29 03:00:03;;;;;;;;;;;;;;;5.40;48.16;100934.25;4383182;32;20340;-74
2022/01/29 03:02:29;;;;;;;;;;;;;;;5.39;47.70;100941.03;4373321;32;19991;-74
2022/01/29 03:04:57;;;;;;;;;;;;;;;5.39;47.13;100928.19;4368666;32;20013;-74
2022/01/29 03:07:24;;;;;;;;;;;;;;;5.70;46.34;100937.56;4370239;32;19978;-75
2022/01/29 03:09:50;;;;;;;;;;;;;;;5.32;47.23;100938.94;4376750;32;20040;-74
2022/01/29 03:12:17;;;;;;;;;;;;;;;5.45;46.54;100932.78;4385219;32;20272;-76
2022/01/29 03:14:44;;;;;;;;;;;;;;;5.36;46.82;100938.34;4383707;32;20012;-74
2022/01/29 03:17:11;;;;;;;;;;;;;;;5.68;46.01;100949.44;4396377;32;20512;-75
2022/01/29 03:19:38;;;;;;;;;;;;;;;5.84;45.73;100954.59;4396008;32;19974;-75
2022/01/29 03:22:04;;;;;;;;;;;;;;;6.11;44.73;100959.44;4396724;32;19991;-74
2022/01/29 03:24:31;;;;;;;;;;;;;;;5.85;45.06;100956.38;4392905;32;19998;-75
2022/01/29 03:26:58;;;;;;;;;;;;;;;5.68;44.87;100957.12;4376763;32;19992;-74
2022/01/29 03:29:25;;;;;;;;;;;;;;;5.78;44.80;100964.56;4381150;32;20029;-74
2022/01/29 03:31:51;;;;;;;;;;;;;;;5.78;43.98;100970.56;4370091;32;20034;-75
2022/01/29 03:34:19;;;;;;;;;;;;;;;5.81;44.08;100969.88;4388292;32;20429;-75
2022/01/29 03:36:45;;;;;;;;;;;;;;;5.78;44.02;100969.69;4370853;32;20040;-75
2022/01/29 03:39:12;;;;;;;;;;;;;;;6.15;42.63;100966.50;4369790;32;19975;-76
2022/01/29 03:41:39;;;;;;;;;;;;;;;6.09;42.81;100961.94;4374150;32;19979;-75
2022/01/29 03:44:07;;;;;;;;;;;;;;;6.01;43.03;100966.69;4380771;32;19979;-74
2022/01/29 03:46:35;;;;;;;;;;;;;;;6.00;43.08;100967.50;4367722;32;20085;-74
2022/01/29 03:49:02;;;;;;;;;;;;;;;5.98;42.91;100958.81;4372691;32;19998;-75
2022/01/29 03:51:29;;;;;;;;;;;;;;;5.77;42.92;100962.75;4375304;32;20320;-76
2022/01/29 03:53:55;;;;;;;;;;;;;;;5.96;42.68;100955.25;4373848;32;19979;-76
2022/01/29 03:56:22;;;;;;;;;;;;;;;6.14;41.81;100959.59;4381622;32;19974;-76
2022/01/29 03:58:49;;;;;;;;;;;;;;;6.07;41.67;100955.84;4384703;32;20419;-74
2022/01/29 04:01:16;;;;;;;;;;;;;;;6.14;41.42;100957.03;4384762;32;20029;-74
2022/01/29 04:03:43;;;;;;;;;;;;;;;6.03;41.76;100967.66;4389427;32;20033;-74
2022/01/29 04:06:09;;;;;;;;;;;;;;;6.10;41.40;100960.25;4380750;32;19979;-75
2022/01/29 04:08:41;;;;;;;;;;;;;;;6.10;41.80;100970.53;4386333;32;19982;-76
2022/01/29 04:11:10;;;;;;;;;;;;;;;6.29;41.29;100975.84;4383853;32;19998;-74
2022/01/29 04:13:42;;;;;;;;;;;;;;;6.01;41.89;100987.25;4377070;32;19975;-77
2022/01/29 04:16:11;;;;;;;;;;;;;;;6.21;41.75;100967.72;4369180;32;20001;-75
2022/01/29 04:18:38;;;;;;;;;;;;;;;6.29;41.14;100970.69;4370233;32;19974;-76
2022/01/29 04:21:05;;;;;;;;;;;;;;;5.99;41.93;100968.28;4380501;32;20061;-75
2022/01/29 04:23:32;;;;;;;;;;;;;;;5.55;42.90;100971.91;4381625;32;20022;-74
2022/01/29 04:26:01;;;;;;;;;;;;;;;5.83;42.07;100963.09;4369682;32;20033;-75
2022/01/29 04:28:31;;;;;;;;;;;;;;;6.10;41.60;100960.25;4385531;32;19979;-74
2022/01/29 04:31:04;;;;;;;;;;;;;;;6.23;41.05;100954.94;4384642;32;19990;-74
2022/01/29 04:33:31;;;;;;;;;;;;;;;6.05;41.67;100960.00;4379662;32;19989;-75
2022/01/29 04:35:59;;;;;;;;;;;;;;;5.95;41.74;100943.22;4376622;32;19974;-74
2022/01/29 04:38:26;;;;;;;;;;;;;;;5.98;41.84;100943.38;4376227;32;19967;-75
2022/01/29 04:40:53;;;;;;;;;;;;;;;6.26;41.23;100937.09;4369822;32;20029;-74
2022/01/29 04:43:19;;;;;;;;;;;;;;;6.12;41.50;100945.78;4368631;32;19990;-74
2022/01/29 04:45:46;;;;;;;;;;;;;;;6.19;41.50;100947.84;4369746;32;19987;-73
2022/01/29 04:48:13;;;;;;;;;;;;;;;5.95;42.16;100948.38;4369475;32;20339;-74
2022/01/29 04:50:40;;;;;;;;;;;;;;;6.01;42.13;100942.66;4369342;32;20042;-74
2022/01/29 04:53:07;;;;;;;;;;;;;;;6.09;41.88;100945.63;4380782;32;20429;-74
2022/01/29 04:55:34;;;;;;;;;;;;;;;6.22;41.62;100937.72;4368167;32;19979;-74
2022/01/29 04:58:00;;;;;;;;;;;;;;;6.40;41.22;100938.69;4377649;32;19993;-73
2022/01/29 05:00:27;;;;;;;;;;;;;;;5.95;42.30;100938.09;4369624;32;20002;-74
2022/01/29 05:02:54;;;;;;;;;;;;;;;6.26;41.72;100929.41;4376530;32;19994;-73
2022/01/29 05:05:22;;;;;;;;;;;;;;;6.34;41.68;100940.06;4368153;32;20273;-75
2022/01/29 05:07:49;;;;;;;;;;;;;;;6.58;40.99;100943.00;4382040;32;19975;-74
2022/01/29 05:10:15;;;;;;;;;;;;;;;6.37;41.47;100942.78;4374359;32;20272;-74
2022/01/29 05:12:52;;;;;;;;;;;;;;;6.49;41.33;100944.28;4380216;32;20041;-74
2022/01/29 05:29:08;;;;;;;;;;;;;;;6.32;42.98;100965.72;4374787;32;20019;-74
2022/01/29 05:31:36;;;;;;;;;;;;;;;6.72;42.09;100957.41;4375497;32;20340;-74
2022/01/29 05:34:03;;;;;;;;;;;;;;;6.43;42.77;100961.97;4380475;32;20009;-74
2022/01/29 05:36:30;;;;;;;;;;;;;;;6.61;42.40;100971.44;4376680;32;19987;-73
2022/01/29 05:38:57;;;;;;;;;;;;;;;6.16;43.71;100968.25;4381270;32;20283;-74
2022/01/29 05:41:25;;;;;;;;;;;;;;;6.31;43.36;100958.78;4387600;32;20309;-74
2022/01/29 05:43:51;;;;;;;;;;;;;;;6.45;42.98;100954.34;4383416;32;20042;-74
2022/01/29 05:46:19;;;;;;;;;;;;;;;6.51;42.74;100962.37;4384520;32;19982;-74
2022/01/29 05:48:45;;;;;;;;;;;;;;;6.70;42.35;100966.72;4386496;32;20035;-74
2022/01/29 05:51:12;;;;;;;;;;;;;;;6.56;42.72;100965.16;4382510;32;20041;-74
2022/01/29 05:53:40;;;;;;;;;;;;;;;6.46;43.05;100969.84;4397504;32;19987;-73
2022/01/29 05:56:07;;;;;;;;;;;;;;;6.32;43.43;100976.00;4385452;32;19982;-74
2022/01/29 05:58:34;;;;;;;;;;;;;;;6.65;42.71;100981.06;4386647;32;19982;-74
2022/01/29 06:01:01;;;;;;;;;;;;;;;6.58;42.72;100979.87;4386862;32;19974;-74
2022/01/29 06:03:28;;;;;;;;;;;;;;;6.78;42.42;100983.44;4379421;32;19987;-73
2022/01/29 06:05:55;;;;;;;;;;;;;;;6.82;42.25;100990.50;4395674;32;20011;-78
2022/01/29 06:08:21;;;;;;;;;;;;;;;6.82;42.42;100990.50;4379904;32;20044;-73
2022/01/29 06:10:49;;;;;;;;;;;;;;;6.60;42.40;100993.69;4370227;32;19975;-74
2022/01/29 06:13:16;;;;;;;;;;;;;;;6.69;42.75;100994.16;4383653;32;20346;-73
2022/01/29 06:15:49;;;;;;;;;;;;;;;6.65;42.81;100996.50;4375870;32;19978;-74
2022/01/29 06:18:18;;;;;;;;;;;;;;;6.55;42.90;101008.03;4371329;32;20482;-74
2022/01/29 06:20:47;;;;;;;;;;;;;;;6.66;42.56;101009.44;4371358;32;19975;-73
2022/01/29 06:23:15;;;;;;;;;;;;;;;6.69;42.60;101003.56;4385147;32;20046;-72
2022/01/29 06:25:42;;;;;;;;;;;;;;;6.73;42.68;101002.91;4358104;32;20982;-73
2022/01/29 06:28:09;;;;;;;;;;;;;;;6.64;43.02;101000.78;4352486;32;19980;-74
2022/01/29 06:30:35;;;;;;;;;;;;;;;6.61;42.92;100994.59;4346250;32;19975;-72
2022/01/29 06:33:09;;;;;;;;;;;;;;;6.51;42.85;101000.97;4355125;32;20046;-72
2022/01/29 06:35:36;;;;;;;;;;;;;;;6.35;43.57;101001.88;4366885;32;19996;-72
2022/01/29 06:38:04;;;;;;;;;;;;;;;6.31;44.13;101001.59;4363085;32;19984;-73
2022/01/29 06:40:31;;;;;;;;;;;;;;;6.56;43.83;101006.31;4356413;32;19991;-74
2022/01/29 06:42:57;;;;;;;;;;;;;;;6.09;44.96;101013.34;4366643;32;20023;-74
2022/01/29 06:45:24;;;;;;;;;;;;;;;6.18;45.67;101007.81;4356213;32;19984;-74
2022/01/29 06:47:51;;;;;;;;;;;;;;;6.58;44.67;100999.59;4354428;32;20000;-75
2022/01/29 06:50:18;;;;;;;;;;;;;;;6.90;44.10;101003.75;4361272;32;20033;-74
2022/01/29 06:52:45;;;;;;;;;;;;;;;7.03;43.86;101000.97;4370496;32;20001;-74
2022/01/29 06:55:12;;;;;;;;;;;;;;;6.60;45.15;100995.38;4354388;32;20317;-74
2022/01/29 06:57:39;;;;;;;;;;;;;;;7.10;44.08;100991.88;4363121;32;20017;-76
2022/01/29 07:00:26;;;;;;;;;;;;;;;6.84;44.55;100999.19;3779732;32;20003374;-73
2022/01/29 07:02:52;;;;;;;;;;;;;;;6.99;44.05;101006.78;4361133;32;20007;-75
2022/01/29 07:05:19;;;;;;;;;;;;;;;7.06;44.00;101015.69;4370718;32;20001;-74
2022/01/29 07:07:46;;;;;;;;;;;;;;;7.04;44.38;101012.16;4370106;32;20343;-82
2022/01/29 07:10:14;;;;;;;;;;;;;;;7.08;44.09;101014.06;4363396;32;19983;-76
2022/01/29 07:12:41;;;;;;;;;;;;;;;7.13;43.61;101012.59;4364175;32;20407;-77
2022/01/29 07:15:09;;;;;;;;;;;;;;;6.98;43.96;101015.31;4365015;32;19987;-76
2022/01/29 07:17:35;;;;;;;;;;;;;;;7.40;43.37;101013.94;4361152;32;20049;-75
2022/01/29 07:20:03;;;;;;;;;;;;;;;7.73;41.43;101010.31;4364220;32;19986;-75
2022/01/29 07:22:30;;;;;;;;;;;;;;;8.03;41.39;101013.37;4368685;32;19986;-75
2022/01/29 07:24:58;;;;;;;;;;;;;;;7.76;41.98;101013.91;4370983;32;19987;-74
2022/01/29 07:27:24;;;;;;;;;;;;;;;7.55;42.93;101028.34;4370300;32;19994;-75
2022/01/29 07:29:51;;;;;;;;;;;;;;;7.71;41.98;101030.84;4370505;32;20014;-75
2022/01/29 07:32:18;;;;;;;;;;;;;;;7.50;42.71;101027.25;4373975;32;19990;-74
2022/01/29 07:34:45;;;;;;;;;;;;;;;7.81;42.62;101032.12;4379150;32;19975;-74
2022/01/29 07:37:12;;;;;;;;;;;;;;;7.05;44.16;101034.50;4394394;32;19979;-74
2022/01/29 07:39:39;;;;;;;;;;;;;;;7.75;43.39;101042.16;4384518;32;20018;-74
2022/01/29 07:42:06;;;;;;;;;;;;;;;8.18;42.62;101034.72;4381881;32;20006;-79
2022/01/29 07:44:34;;;;;;;;;;;;;;;8.27;42.48;101029.97;4370566;32;20034;-75
2022/01/29 07:47:01;;;;;;;;;;;;;;;8.47;40.93;101027.41;4380249;32;19979;-77
2022/01/29 07:49:28;;;;;;;;;;;;;;;7.66;42.87;101030.63;4384883;32;19974;-74
2022/01/29 07:51:57;;;;;;;;;;;;;;;8.30;42.19;101030.09;4379743;32;20333;-74
2022/01/29 07:54:24;;;;;;;;;;;;;;;8.86;40.43;101023.06;4384411;32;20062;-76
2022/01/29 07:56:50;;;;;;;;;;;;;;;8.97;40.21;101020.94;4379974;32;19971;-76
2022/01/29 07:59:17;;;;;;;;;;;;;;;8.99;40.34;101024.44;4366536;32;19979;-75
2022/01/29 08:01:45;;;;;;;;;;;;;;;9.10;39.95;101028.38;4366705;32;19979;-76
2022/01/29 08:04:12;;;;;;;;;;;;;;;9.35;39.86;101029.34;4365972;32;19990;-76
2022/01/29 08:06:39;;;;;;;;;;;;;;;9.55;39.38;101029.31;4378354;32;19983;-76
2022/01/29 08:09:08;;;;;;;;;;;;;;;9.60;39.57;101021.75;4382476;32;19987;-76
2022/01/29 08:11:35;;;;;;;;;;;;;;;9.68;39.34;101030.69;4378708;32;19998;-77
2022/01/29 08:14:02;;;;;;;;;;;;;;;9.90;38.29;101032.41;4383962;32;19994;-76
2022/01/29 08:16:29;;;;;;;;;;;;;;;9.96;38.98;101037.81;4382658;32;20326;-77
2022/01/29 08:18:56;;;;;;;;;;;;;;;9.57;39.15;101042.28;4380064;32;20014;-77
2022/01/29 08:21:23;;;;;;;;;;;;;;;9.98;37.88;101040.44;4375905;32;20038;-75
2022/01/29 08:23:50;;;;;;;;;;;;;;;9.55;38.96;101026.75;4359521;32;19994;-77
2022/01/29 08:26:20;;;;;;;;;;;;;;;9.65;38.55;101030.56;4375340;32;20026;-77
2022/01/29 08:28:47;;;;;;;;;;;;;;;9.60;38.35;101031.19;4378600;32;19999;-77
2022/01/29 08:31:14;;;;;;;;;;;;;;;9.91;37.84;101030.69;4371200;32;20008;-76
2022/01/29 08:33:41;;;;;;;;;;;;;;;10.09;37.08;101033.97;4376302;32;19987;-75
2022/01/29 08:36:08;;;;;;;;;;;;;;;10.11;37.29;101027.13;4373709;32;19991;-75
2022/01/29 08:38:35;;;;;;;;;;;;;;;10.08;37.20;101032.19;4375402;32;19990;-75
2022/01/29 08:41:04;;;;;;;;;;;;;;;10.13;36.40;101029.78;4365209;32;19979;-75
2022/01/29 08:43:32;;;;;;;;;;;;;;;10.06;36.76;101033.84;4359134;32;19975;-75
2022/01/29 08:45:59;;;;;;;;;;;;;;;9.94;37.29;101033.37;4381567;32;20364;-76
2022/01/29 08:48:26;;;;;;;;;;;;;;;10.07;36.71;101035.59;4381112;32;20037;-77
2022/01/29 08:50:53;;;;;;;;;;;;;;;10.16;37.46;101035.94;4380162;32;20361;-75
2022/01/29 08:53:20;;;;;;;;;;;;;;;10.39;36.21;101033.34;4373730;32;19974;-77
2022/01/29 08:55:47;;;;;;;;;;;;;;;9.97;37.08;101033.50;4370627;32;19982;-77
2022/01/29 08:58:14;;;;;;;;;;;;;;;9.98;36.01;101040.44;4369764;32;19994;-76
2022/01/29 09:00:59;;;;;;;;;;;;;;;10.28;36.33;101039.88;4369173;32;19993;-75
2022/01/29 09:03:27;;;;;;;;;;;;;;;10.28;36.72;101039.88;4380971;32;19987;-74
2022/01/29 09:05:55;;;;;;;;;;;;;;;10.93;34.88;101038.69;4380834;32;20010;-77
2022/01/29 09:08:21;;;;;;;;;;;;;;;10.80;34.15;101047.75;4371101;32;20026;-76
2022/01/29 09:10:49;;;;;;;;;;;;;;;10.50;34.04;101046.66;4372417;32;19990;-74
2022/01/29 09:13:15;;;;;;;;;;;;;;;10.73;33.43;101034.56;4385246;32;19979;-78
2022/01/29 09:15:42;;;;;;;;;;;;;;;10.68;32.72;101035.25;4383813;32;19997;-76
2022/01/29 09:18:09;;;;;;;;;;;;;;;10.81;33.48;101038.28;4375983;32;19975;-76
2022/01/29 09:20:36;;;;;;;;;;;;;;;10.38;33.71;101047.13;4379356;32;20477;-76
2022/01/29 09:23:03;;;;;;;;;;;;;;;10.63;32.51;101054.94;4381957;32;20540;-76
2022/01/29 09:25:31;;;;;;;;;;;;;;;10.64;31.89;101046.34;4365376;32;19983;-76
2022/01/29 09:27:58;;;;;;;;;;;;;;;10.63;31.79;101044.59;4357171;32;19971;-76
2022/01/29 09:30:26;;;;;;;;;;;;;;;10.76;30.64;101034.66;4366322;32;20041;-76
2022/01/29 09:32:53;;;;;;;;;;;;;;;10.83;31.18;101028.84;4372848;32;19987;-76
2022/01/29 09:35:19;;;;;;;;;;;;;;;9.96;33.55;101042.09;4370869;32;19982;-76
2022/01/29 09:37:46;;;;;;;;;;;;;;;10.59;32.16;101027.19;4370756;32;19993;-76
2022/01/29 09:40:14;;;;;;;;;;;;;;;10.58;32.64;101028.00;4379569;32;20025;-76
2022/01/29 09:42:44;;;;;;;;;;;;;;;10.87;32.79;101022.94;4373132;32;19983;-76
2022/01/29 09:45:14;;;;;;;;;;;;;;;10.94;32.45;101014.53;4389355;32;19975;-76
2022/01/29 09:47:43;;;;;;;;;;;;;;;10.95;31.82;101016.31;4383956;32;20013;-77
2022/01/29 09:50:10;;;;;;;;;;;;;;;10.43;33.88;101010.25;4389277;32;19999;-77
2022/01/29 09:52:37;;;;;;;;;;;;;;;10.88;33.71;101001.38;4371501;32;20033;-77
2022/01/29 09:55:05;;;;;;;;;;;;;;;10.96;33.49;101002.53;4390726;32;19982;-76
2022/01/29 09:57:32;;;;;;;;;;;;;;;10.79;34.32;100994.19;4382754;32;19979;-76
2022/01/29 09:59:58;;;;;;;;;;;;;;;10.58;35.03;100978.81;4379350;32;19974;-76
2022/01/29 10:02:26;;;;;;;;;;;;;;;10.68;35.56;100985.19;4371426;32;20003;-76
2022/01/29 10:04:53;;;;;;;;;;;;;;;10.65;35.44;100983.34;4371486;32;19990;-76
2022/01/29 10:07:25;;;;;;;;;;;;;;;10.93;34.43;100982.56;4371369;32;20234;-76
2022/01/29 10:09:52;;;;;;;;;;;;;;;10.97;34.49;100983.56;4377128;32;19986;-76
2022/01/29 10:12:30;;;;;;;;;;;;;;;10.87;34.49;100971.12;4382613;32;20053;-76
2022/01/29 10:15:01;;;;;;;;;;;;;;;10.60;35.82;100974.56;4375210;32;20043;-75
2022/01/29 10:17:41;;;;;;;;;;;;;;;10.57;36.04;100978.78;4344368;32;20034;-76
2022/01/29 10:20:11;;;;;;;;;;;;;;;10.46;36.23;100973.19;4326147;33;20027;-78
2022/01/29 10:22:39;;;;;;;;;;;;;;;9.86;37.71;100975.31;4345819;32;19984;-79
2022/01/29 10:25:06;;;;;;;;;;;;;;;10.21;37.45;100977.50;4327111;33;20460;-78
2022/01/29 10:27:33;;;;;;;;;;;;;;;10.35;36.74;100967.66;4326338;33;19988;-79
2022/01/29 10:30:10;;;;;;;;;;;;;;;9.83;37.67;100972.59;4324704;33;19995;-78
2022/01/29 10:32:37;;;;;;;;;;;;;;;10.33;36.34;100984.81;4326454;33;20002;-79
2022/01/29 10:35:04;;;;;;;;;;;;;;;10.29;37.28;100971.75;4335817;32;19980;-78
2022/01/29 10:37:31;;;;;;;;;;;;;;;9.91;38.04;100971.19;4327032;33;20007;-77
2022/01/29 10:39:59;;;;;;;;;;;;;;;10.15;37.18;100966.06;4333762;33;20477;-78
2022/01/29 10:42:31;;;;;;;;;;;;;;;9.96;37.89;100969.69;4326443;33;19983;-77
2022/01/29 10:45:05;;;;;;;;;;;;;;;9.43;38.72;100956.47;4346384;32;19994;-78
2022/01/29 10:47:52;;;;;;;;;;;;;;;9.36;39.51;100969.13;4374124;32;19996;-78
2022/01/29 10:50:19;;;;;;;;;;;;;;;9.74;38.76;100953.38;4364819;32;20073;-77
2022/01/29 10:52:47;;;;;;;;;;;;;;;9.48;39.86;100960.13;4356494;32;19982;-77
2022/01/29 10:55:14;;;;;;;;;;;;;;;8.89;40.65;100957.75;4361548;32;20373;-77
2022/01/29 10:57:45;;;;;;;;;;;;;;;9.15;40.73;100954.50;4369740;32;19983;-78
2022/01/29 11:00:21;;;;;;;;;;;;;;;9.30;40.66;100952.53;4354186;32;20042;-77
2022/01/29 11:02:48;;;;;;;;;;;;;;;9.73;39.75;100945.53;4368118;32;20004;-78
2022/01/29 11:05:15;;;;;;;;;;;;;;;9.80;39.20;100946.66;4372385;32;20013;-80
2022/01/29 11:07:45;;;;;;;;;;;;;;;9.82;39.79;100945.00;4364081;32;19987;-80
2022/01/29 11:10:12;;;;;;;;;;;;;;;9.71;39.88;100948.06;4371435;32;19978;-77
2022/01/29 11:12:46;;;;;;;;;;;;;;;9.60;40.28;100943.31;4382130;32;19990;-78
2022/01/29 11:15:17;;;;;;;;;;;;;;;9.68;39.62;100932.44;4365597;32;19983;-76
2022/01/29 11:17:43;;;;;;;;;;;;;;;9.51;40.49;100936.13;4367554;32;20030;-76
2022/01/29 11:20:11;;;;;;;;;;;;;;;9.82;39.47;100932.06;4371453;32;20524;-76
2022/01/29 11:22:39;;;;;;;;;;;;;;;9.82;39.63;100924.31;4369888;32;20021;-77
2022/01/29 11:25:07;;;;;;;;;;;;;;;9.81;40.25;100917.38;4367747;32;19975;-77
2022/01/29 11:27:34;;;;;;;;;;;;;;;9.71;40.41;100911.00;4366483;32;19987;-77
2022/01/29 11:30:03;;;;;;;;;;;;;;;9.86;40.15;100905.50;4372395;32;19997;-78
2022/01/29 11:32:33;;;;;;;;;;;;;;;9.31;42.45;100910.38;4369321;32;20732;-74
2022/01/29 11:35:02;;;;;;;;;;;;;;;9.44;41.84;100900.50;4364214;32;19983;-78
2022/01/29 11:37:38;;;;;;;;;;;;;;;9.08;43.05;100893.97;4354788;32;20384;-80
2022/01/29 11:40:11;;;;;;;;;;;;;;;9.76;40.84;100897.44;4357215;32;19996;-78
2022/01/29 11:42:38;;;;;;;;;;;;;;;8.95;43.37;100898.63;4371475;32;20361;-79
2022/01/29 11:45:23;;;;;;;;;;;;;;;9.11;42.62;100885.47;4386797;32;19986;-78
2022/01/29 11:47:50;;;;;;;;;;;;;;;8.80;43.56;100889.44;4385298;32;19991;-78
2022/01/29 11:50:20;;;;;;;;;;;;;;;8.88;43.36;100881.13;4384118;32;19982;-78
2022/01/29 11:52:54;;;;;;;;;;;;;;;8.84;43.24;100878.44;4377744;32;20319;-77
2022/01/29 11:55:44;;;;;;;;;;;;;;;9.03;43.33;100871.37;4370956;32;19989;-77
2022/01/29 11:58:17;;;;;;;;;;;;;;;8.84;43.60;100865.53;4368576;32;20030;-77
2022/01/29 12:00:48;;;;;;;;;;;;;;;8.79;43.55;100864.44;4379300;32;19982;-77
2022/01/29 12:03:44;;;;;;;;;;;;;;;9.28;42.25;100868.94;4370162;32;19975;-77
2022/01/29 12:09:04;;;;;;;;;;;;;;;9.28;42.71;100852.53;4384691;32;19976;-78
2022/01/29 12:11:32;;;;;;;;;;;;;;;9.54;42.12;100856.09;4379157;32;20024;-78
2022/01/29 12:14:08;;;;;;;;;;;;;;;9.40;42.49;100839.19;4370540;32;19983;-78
2022/01/29 12:16:47;;;;;;;;;;;;;;;9.59;42.24;100833.87;4372262;32;19979;-79
2022/01/29 12:19:33;;;;;;;;;;;;;;;9.75;41.61;100841.34;4377182;32;20449;-79
2022/01/29 12:22:00;;;;;;;;;;;;;;;9.31;42.54;100832.84;4376685;32;19975;-81
2022/01/29 12:24:28;;;;;;;;;;;;;;;9.39;42.64;100824.53;4383605;32;20344;-80
2022/01/29 12:26:55;;;;;;;;;;;;;;;9.28;42.88;100825.03;4370451;32;19992;-79
2022/01/29 12:29:22;;;;;;;;;;;;;;;9.43;42.06;100826.41;4376997;32;19978;-80
2022/01/29 12:31:50;;;;;;;;;;;;;;;9.35;42.36;100823.53;4375113;32;19971;-79
2022/01/29 12:34:17;;;;;;;;;;;;;;;9.01;43.27;100817.09;4376094;32;19982;-80
2022/01/29 12:36:43;;;;;;;;;;;;;;;9.10;43.22;100814.00;4373074;32;20458;-80
2022/01/29 12:39:20;;;;;;;;;;;;;;;8.18;45.23;100812.03;4372038;32;19987;-80
2022/01/29 12:45:03;;;;;;;;;;;;;;;9.08;43.07;100797.56;4355800;32;20321;-80
2022/01/29 12:47:32;;;;;;;;;;;;;;;8.91;43.45;100783.13;4355475;32;19989;-80
2022/01/29 12:49:59;;;;;;;;;;;;;;;9.29;42.48;100777.69;4366474;32;20743;-80
2022/01/29 12:52:29;;;;;;;;;;;;;;;9.23;42.85;100772.28;4355989;32;20673;-80
2022/01/29 12:54:58;;;;;;;;;;;;;;;8.58;43.90;100778.41;4366808;32;19978;-80
2022/01/29 12:57:45;;;;;;;;;;;;;;;8.89;43.70;100764.12;4373034;32;19974;-81
2022/01/29 13:00:17;;;;;;;;;;;;;;;9.38;42.48;100771.06;4355476;32;19979;-80
2022/01/29 13:02:44;;;;;;;;;;;;;;;9.72;41.67;100763.69;4355808;32;20318;-80
2022/01/29 13:05:11;;;;;;;;;;;;;;;9.70;41.46;100767.03;4367860;32;19979;-80
2022/01/29 13:07:39;;;;;;;;;;;;;;;9.87;41.45;100765.03;4357924;32;19983;-80
2022/01/29 13:10:07;;;;;;;;;;;;;;;9.90;41.60;100757.38;4355716;32;19977;-80
2022/01/29 13:12:40;;;;;;;;;;;;;;;10.10;41.13;100760.62;4374607;32;19983;-80